createdAt,value
2023-12-07T00:00:23.813Z,1024.01
2023-12-07T00:00:50.173Z,1024.11
2023-12-07T00:01:08.449Z,1024.11
2023-12-07T00:01:42.358Z,1024.11
2023-12-07T00:02:15.710Z,1024.11
2023-12-07T00:02:46.305Z,1024.11
2023-12-07T00:03:18.422Z,1024.31
2023-12-07T00:03:50.275Z,1024.31
2023-12-07T00:04:22.331Z,1024.21
2023-12-07T00:04:50.838Z,1024.11
2023-12-07T00:05:29.024Z,1024.11
2023-12-07T00:05:50.319Z,1024.21
2023-12-07T00:06:14.196Z,1024.21
2023-12-07T00:06:46.495Z,1024.21
2023-12-07T00:07:18.776Z,1024.11
2023-12-07T00:07:50.345Z,1024.11
2023-12-07T00:08:22.336Z,1024.11
2023-12-07T00:08:46.393Z,1024.21
2023-12-07T00:09:09.293Z,1024.21
2023-12-07T00:09:43.899Z,1024.21
2023-12-07T00:10:14.407Z,1024.21
2023-12-07T00:10:47.084Z,1024.21
2023-12-07T00:11:20.503Z,1024.31
2023-12-07T00:11:51.868Z,1024.31
2023-12-07T00:12:25.687Z,1024.41
2023-12-07T00:12:46.153Z,1024.31
2023-12-07T00:13:09.896Z,1024.31
2023-12-07T00:13:44.669Z,1024.31
2023-12-07T00:14:14.746Z,1024.21
2023-12-07T00:14:47.687Z,1024.21
2023-12-07T00:15:21.689Z,1024.31
2023-12-07T00:15:51.387Z,1024.31
2023-12-07T00:16:22.510Z,1024.31
2023-12-07T00:16:46.846Z,1024.31
2023-12-07T00:17:07.960Z,1024.31
2023-12-07T00:17:42.962Z,1024.31
2023-12-07T00:18:15.558Z,1024.31
2023-12-07T00:18:47.741Z,1024.31
2023-12-07T00:19:19.688Z,1024.31
2023-12-07T00:19:51.020Z,1024.31
2023-12-07T00:20:22.508Z,1024.52
2023-12-07T00:20:45.426Z,1024.62
2023-12-07T00:21:08.943Z,1024.62
2023-12-07T00:21:43.348Z,1024.62
2023-12-07T00:22:16.202Z,1024.21
2023-12-07T00:22:46.502Z,1024.21
2023-12-07T00:23:19.033Z,1024.31
2023-12-07T00:23:51.095Z,1024.31
2023-12-07T00:24:22.810Z,1024.41
2023-12-07T00:24:45.530Z,1024.62
2023-12-07T00:25:09.025Z,1024.62
2023-12-07T00:25:42.731Z,1024.62
2023-12-07T00:26:15.590Z,1024.52
2023-12-07T00:26:46.502Z,1024.52
2023-12-07T00:27:18.345Z,1024.31
2023-12-07T00:27:53.250Z,1024.41
2023-12-07T00:28:23.670Z,1024.41
2023-12-07T00:28:44.984Z,1024.62
2023-12-07T00:29:11.075Z,1024.62
2023-12-07T00:29:46.943Z,1024.62
2023-12-07T00:30:15.032Z,1024.62
2023-12-07T00:30:47.759Z,1024.62
2023-12-07T00:31:19.218Z,1024.72
2023-12-07T00:31:50.211Z,1024.72
2023-12-07T00:32:23.676Z,1024.52
2023-12-07T00:32:45.758Z,1024.41
2023-12-07T00:33:08.273Z,1024.41
2023-12-07T00:33:45.597Z,1024.62
2023-12-07T00:34:15.538Z,1024.62
2023-12-07T00:35:19.769Z,1024.62
2023-12-07T00:35:51.699Z,1024.62
2023-12-07T00:36:23.284Z,1024.41
2023-12-07T00:36:46.520Z,1024.52
2023-12-07T00:37:08.647Z,1024.52
2023-12-07T00:37:42.773Z,1024.52
2023-12-07T00:38:14.134Z,1024.41
2023-12-07T00:38:48.051Z,1024.41
2023-12-07T00:39:18.715Z,1024.41
2023-12-07T00:39:50.329Z,1024.41
2023-12-07T00:40:23.787Z,1024.31
2023-12-07T00:40:46.432Z,1024.72
2023-12-07T00:41:10.416Z,1024.72
2023-12-07T00:41:42.331Z,1024.72
2023-12-07T00:42:14.573Z,1024.31
2023-12-07T00:42:46.476Z,1024.31
2023-12-07T00:43:19.994Z,1024.41
2023-12-07T00:43:51.737Z,1024.41
2023-12-07T00:44:23.388Z,1024.62
2023-12-07T00:44:46.077Z,1024.52
2023-12-07T00:45:10.046Z,1024.52
2023-12-07T00:45:43.572Z,1024.52
2023-12-07T00:46:14.683Z,1024.52
2023-12-07T00:46:46.713Z,1024.52
2023-12-07T00:47:20.114Z,1024.62
2023-12-07T00:47:50.574Z,1024.62
2023-12-07T00:48:22.802Z,1024.92
2023-12-07T00:48:45.689Z,1024.62
2023-12-07T00:49:11.686Z,1024.62
2023-12-07T00:49:43.331Z,1024.62
2023-12-07T00:50:14.859Z,1024.62
2023-12-07T00:50:50.685Z,1024.62
2023-12-07T00:51:18.665Z,1024.62
2023-12-07T00:51:50.412Z,1024.62
2023-12-07T00:52:23.132Z,1024.41
2023-12-07T00:52:45.271Z,1024.62
2023-12-07T00:53:11.489Z,1024.62
2023-12-07T00:53:43.362Z,1024.62
2023-12-07T00:54:18.938Z,1024.72
2023-12-07T00:54:46.727Z,1024.72
2023-12-07T00:55:19.868Z,1024.41
2023-12-07T00:55:58.473Z,1024.41
2023-12-07T00:56:21.405Z,1024.41
2023-12-07T00:56:54.919Z,1024.62
2023-12-07T00:57:27.290Z,1024.62
2023-12-07T00:57:49.534Z,1024.82
2023-12-07T00:58:12.062Z,1024.82
2023-12-07T00:58:48.322Z,1024.82
2023-12-07T00:59:26.155Z,1024.52
2023-12-07T00:59:48.031Z,1024.52
2023-12-07T01:00:23.400Z,1024.82
2023-12-07T01:00:51.914Z,1024.72
2023-12-07T01:01:27.785Z,1024.72
2023-12-07T01:01:49.666Z,1024.72
2023-12-07T01:02:12.733Z,1024.72
2023-12-07T01:02:46.276Z,1024.72
2023-12-07T01:03:18.085Z,1024.72
2023-12-07T01:03:50.203Z,1024.72
2023-12-07T01:04:22.682Z,1024.62
2023-12-07T01:04:50.282Z,1024.82
2023-12-07T01:05:08.363Z,1024.82
2023-12-07T01:05:42.460Z,1024.82
2023-12-07T01:06:14.395Z,1024.72
2023-12-07T01:06:46.586Z,1024.72
2023-12-07T01:07:18.268Z,1024.72
2023-12-07T01:07:50.136Z,1024.72
2023-12-07T01:08:22.407Z,1024.62
2023-12-07T01:08:45.625Z,1024.72
2023-12-07T01:09:11.470Z,1024.72
2023-12-07T01:09:42.503Z,1024.72
2023-12-07T01:10:14.427Z,1024.72
2023-12-07T01:10:47.620Z,1024.72
2023-12-07T01:11:18.257Z,1024.92
2023-12-07T01:11:50.312Z,1024.92
2023-12-07T01:12:22.833Z,1024.82
2023-12-07T01:12:47.275Z,1024.72
2023-12-07T01:13:09.966Z,1024.72
2023-12-07T01:13:42.231Z,1024.72
2023-12-07T01:14:15.490Z,1024.82
2023-12-07T01:14:46.642Z,1024.82
2023-12-07T01:15:22.752Z,1024.72
2023-12-07T01:15:50.618Z,1024.72
2023-12-07T01:16:22.597Z,1024.82
2023-12-07T01:16:45.120Z,1024.82
2023-12-07T01:17:07.531Z,1024.82
2023-12-07T01:17:42.151Z,1024.82
2023-12-07T01:18:16.564Z,1024.82
2023-12-07T01:18:47.711Z,1024.82
2023-12-07T01:19:19.568Z,1024.72
2023-12-07T01:19:51.729Z,1024.72
2023-12-07T01:20:26.490Z,1024.72
2023-12-07T01:20:45.069Z,1024.82
2023-12-07T01:21:07.342Z,1024.82
2023-12-07T01:21:43.915Z,1024.82
2023-12-07T01:22:14.432Z,1024.82
2023-12-07T01:22:46.519Z,1024.82
2023-12-07T01:23:19.921Z,1024.82
2023-12-07T01:23:54.840Z,1024.82
2023-12-07T01:24:23.746Z,1024.62
2023-12-07T01:24:45.774Z,1024.72
2023-12-07T01:25:10.372Z,1024.72
2023-12-07T01:25:42.328Z,1024.72
2023-12-07T01:26:14.418Z,1024.62
2023-12-07T01:26:46.468Z,1024.62
2023-12-07T01:27:18.375Z,1024.62
2023-12-07T01:27:50.268Z,1024.62
2023-12-07T01:28:22.419Z,1024.72
2023-12-07T01:28:45.399Z,1024.52
2023-12-07T01:29:09.019Z,1024.52
2023-12-07T01:29:42.758Z,1024.52
2023-12-07T01:30:14.368Z,1024.52
2023-12-07T01:30:46.681Z,1024.52
2023-12-07T01:31:18.138Z,1024.52
2023-12-07T01:31:50.372Z,1024.52
2023-12-07T01:32:22.513Z,1024.72
2023-12-07T01:32:45.253Z,1024.52
2023-12-07T01:33:07.636Z,1024.52
2023-12-07T01:33:42.432Z,1024.52
2023-12-07T01:34:46.355Z,1024.82
2023-12-07T01:35:20.000Z,1024.82
2023-12-07T01:35:50.205Z,1024.82
2023-12-07T01:36:23.305Z,1024.82
2023-12-07T01:36:45.527Z,1024.82
2023-12-07T01:37:07.403Z,1024.82
2023-12-07T01:37:43.604Z,1024.82
2023-12-07T01:38:14.362Z,1024.82
2023-12-07T01:38:46.115Z,1024.82
2023-12-07T01:39:19.050Z,1024.72
2023-12-07T01:39:50.105Z,1024.72
2023-12-07T01:40:22.614Z,1024.72
2023-12-07T01:40:47.002Z,1025.02
2023-12-07T01:41:09.549Z,1025.02
2023-12-07T01:41:42.352Z,1025.02
2023-12-07T01:42:14.245Z,1024.82
2023-12-07T01:42:46.387Z,1024.82
2023-12-07T01:43:19.006Z,1024.92
2023-12-07T01:43:50.113Z,1024.92
2023-12-07T01:44:22.202Z,1025.02
2023-12-07T01:44:45.627Z,1024.82
2023-12-07T01:45:08.013Z,1024.82
2023-12-07T01:45:42.623Z,1024.82
2023-12-07T01:46:18.524Z,1024.92
2023-12-07T01:46:46.431Z,1024.92
2023-12-07T01:47:18.059Z,1024.92
2023-12-07T01:47:50.589Z,1024.92
2023-12-07T01:48:22.346Z,1024.82
2023-12-07T01:48:47.053Z,1024.82
2023-12-07T01:49:11.602Z,1024.82
2023-12-07T01:49:43.653Z,1024.82
2023-12-07T01:50:14.298Z,1024.72
2023-12-07T01:50:47.499Z,1024.72
2023-12-07T01:51:18.506Z,1024.82
2023-12-07T01:51:50.367Z,1024.82
2023-12-07T01:52:22.486Z,1024.82
2023-12-07T01:52:45.504Z,1024.72
2023-12-07T01:53:09.608Z,1024.72
2023-12-07T01:53:42.604Z,1024.72
2023-12-07T01:54:15.706Z,1024.82
2023-12-07T01:54:46.101Z,1024.82
2023-12-07T01:55:19.650Z,1024.92
2023-12-07T01:55:50.516Z,1024.92
2023-12-07T01:56:23.651Z,1024.92
2023-12-07T01:56:45.177Z,1024.82
2023-12-07T01:57:11.921Z,1024.82
2023-12-07T01:57:42.162Z,1024.82
2023-12-07T01:58:14.252Z,1025.02
2023-12-07T01:58:47.494Z,1025.02
2023-12-07T01:59:19.605Z,1025.13
2023-12-07T01:59:50.314Z,1025.13
2023-12-07T02:00:22.465Z,1024.92
2023-12-07T02:00:47.863Z,1024.92
2023-12-07T02:01:08.078Z,1024.92
2023-12-07T02:01:42.348Z,1024.92
2023-12-07T02:02:14.717Z,1024.92
2023-12-07T02:02:46.177Z,1024.92
2023-12-07T02:03:18.285Z,1024.82
2023-12-07T02:03:51.685Z,1024.82
2023-12-07T02:04:22.561Z,1025.13
2023-12-07T02:04:45.938Z,1024.92
2023-12-07T02:05:07.559Z,1024.92
2023-12-07T02:05:42.210Z,1024.92
2023-12-07T02:06:14.403Z,1025.13
2023-12-07T02:06:46.631Z,1025.13
2023-12-07T02:07:22.533Z,1024.92
2023-12-07T02:07:50.202Z,1024.92
2023-12-07T02:08:22.403Z,1024.92
2023-12-07T02:08:52.614Z,1024.82
2023-12-07T02:09:26.354Z,1024.82
2023-12-07T02:09:51.674Z,1025.02
2023-12-07T02:10:12.872Z,1025.02
2023-12-07T02:10:50.712Z,1025.02
2023-12-07T02:11:18.241Z,1025.02
2023-12-07T02:11:51.501Z,1025.02
2023-12-07T02:12:22.604Z,1024.72
2023-12-07T02:12:45.363Z,1025.02
2023-12-07T02:13:07.688Z,1025.02
2023-12-07T02:13:42.587Z,1025.02
2023-12-07T02:14:14.466Z,1025.23
2023-12-07T02:14:46.240Z,1025.23
2023-12-07T02:15:18.652Z,1025.02
2023-12-07T02:15:50.103Z,1025.02
2023-12-07T02:16:22.382Z,1025.13
2023-12-07T02:16:45.136Z,1025.13
2023-12-07T02:17:11.704Z,1025.13
2023-12-07T02:17:42.921Z,1025.13
2023-12-07T02:18:14.401Z,1025.13
2023-12-07T02:18:46.776Z,1025.13
2023-12-07T02:19:19.553Z,1025.13
2023-12-07T02:19:50.344Z,1025.13
2023-12-07T02:20:22.358Z,1024.82
2023-12-07T02:20:45.451Z,1024.92
2023-12-07T02:21:08.003Z,1024.92
2023-12-07T02:21:42.352Z,1024.92
2023-12-07T02:22:14.514Z,1025.23
2023-12-07T02:22:46.379Z,1025.23
2023-12-07T02:23:32.248Z,1024.92
2023-12-07T02:23:52.870Z,1024.92
2023-12-07T02:24:23.152Z,1025.13
2023-12-07T02:24:46.825Z,1025.23
2023-12-07T02:25:08.069Z,1025.23
2023-12-07T02:25:42.412Z,1025.23
2023-12-07T02:26:14.239Z,1025.33
2023-12-07T02:26:47.625Z,1025.33
2023-12-07T02:27:18.602Z,1025.23
2023-12-07T02:27:51.495Z,1025.23
2023-12-07T02:28:23.685Z,1025.02
2023-12-07T02:28:45.402Z,1025.02
2023-12-07T02:29:07.827Z,1025.02
2023-12-07T02:29:43.817Z,1025.02
2023-12-07T02:30:14.445Z,1025.13
2023-12-07T02:30:46.078Z,1025.13
2023-12-07T02:31:18.784Z,1025.23
2023-12-07T02:31:55.636Z,1025.23
2023-12-07T02:32:23.852Z,1025.13
2023-12-07T02:32:46.577Z,1025.13
2023-12-07T02:33:07.716Z,1025.13
2023-12-07T02:33:42.449Z,1025.13
2023-12-07T02:34:14.279Z,1025.13
2023-12-07T02:34:46.556Z,1025.13
2023-12-07T02:35:18.377Z,1025.13
2023-12-07T02:35:50.160Z,1025.13
2023-12-07T02:36:22.543Z,1025.23
2023-12-07T02:36:45.074Z,1025.23
2023-12-07T02:37:07.402Z,1025.23
2023-12-07T02:37:42.341Z,1025.23
2023-12-07T02:38:14.110Z,1025.02
2023-12-07T02:38:47.627Z,1025.02
2023-12-07T02:39:19.747Z,1025.02
2023-12-07T02:39:51.618Z,1025.02
2023-12-07T02:40:22.720Z,1025.23
2023-12-07T02:40:48.305Z,1025.13
2023-12-07T02:41:09.985Z,1025.13
2023-12-07T02:41:42.239Z,1025.13
2023-12-07T02:42:14.237Z,1025.13
2023-12-07T02:42:46.614Z,1025.13
2023-12-07T02:43:18.732Z,1025.23
2023-12-07T02:43:54.592Z,1025.23
2023-12-07T02:44:19.453Z,1025.23
2023-12-07T02:44:52.285Z,1025.13
2023-12-07T02:45:32.101Z,1025.13
2023-12-07T02:45:49.072Z,1025.43
2023-12-07T02:46:11.827Z,1025.43
2023-12-07T02:46:46.302Z,1025.43
2023-12-07T02:47:18.713Z,1025.23
2023-12-07T02:47:50.725Z,1025.23
2023-12-07T02:48:22.597Z,1025.02
2023-12-07T02:48:45.207Z,1025.23
2023-12-07T02:49:10.473Z,1025.23
2023-12-07T02:49:42.500Z,1025.23
2023-12-07T02:50:14.384Z,1025.33
2023-12-07T02:50:46.626Z,1025.33
2023-12-07T02:51:21.829Z,1025.02
2023-12-07T02:51:44.626Z,1025.02
2023-12-07T02:52:19.414Z,1025.13
2023-12-07T02:52:50.883Z,1025.33
2023-12-07T02:53:28.112Z,1025.33
2023-12-07T02:53:51.404Z,1025.13
2023-12-07T02:54:11.348Z,1025.13
2023-12-07T02:54:46.246Z,1025.13
2023-12-07T02:55:18.388Z,1025.23
2023-12-07T02:55:50.253Z,1025.23
2023-12-07T02:56:22.348Z,1025.02
2023-12-07T02:56:45.056Z,1025.13
2023-12-07T02:57:07.799Z,1025.13
2023-12-07T02:57:42.208Z,1025.13
2023-12-07T02:58:14.188Z,1025.23
2023-12-07T02:58:46.246Z,1025.23
2023-12-07T02:59:23.695Z,1025.13
2023-12-07T02:59:50.235Z,1025.13
2023-12-07T03:00:27.790Z,1025.13
2023-12-07T03:00:49.056Z,1025.02
2023-12-07T03:01:08.571Z,1025.02
2023-12-07T03:01:37.891Z,1025.02
2023-12-07T03:02:14.836Z,1025.23
2023-12-07T03:02:47.468Z,1025.23
2023-12-07T03:03:18.570Z,1025.13
2023-12-07T03:03:50.646Z,1025.13
2023-12-07T03:04:23.598Z,1025.33
2023-12-07T03:04:46.141Z,1025.53
2023-12-07T03:05:08.561Z,1025.53
2023-12-07T03:05:43.215Z,1025.53
2023-12-07T03:06:14.522Z,1025.13
2023-12-07T03:06:47.745Z,1025.13
2023-12-07T03:07:18.871Z,1025.13
2023-12-07T03:07:50.599Z,1025.13
2023-12-07T03:08:22.784Z,1025.13
2023-12-07T03:08:45.328Z,1025.33
2023-12-07T03:09:08.228Z,1025.33
2023-12-07T03:09:42.433Z,1025.33
2023-12-07T03:10:14.733Z,1025.43
2023-12-07T03:10:46.764Z,1025.43
2023-12-07T03:11:19.363Z,1025.23
2023-12-07T03:11:50.318Z,1025.23
2023-12-07T03:12:22.826Z,1025.13
2023-12-07T03:12:46.519Z,1025.02
2023-12-07T03:13:08.924Z,1025.02
2023-12-07T03:13:42.275Z,1025.02
2023-12-07T03:14:14.613Z,1025.23
2023-12-07T03:14:47.012Z,1025.23
2023-12-07T03:15:18.537Z,1025.33
2023-12-07T03:15:54.616Z,1025.33
2023-12-07T03:16:22.828Z,1025.13
2023-12-07T03:16:45.482Z,1025.23
2023-12-07T03:17:08.175Z,1025.23
2023-12-07T03:17:42.449Z,1025.23
2023-12-07T03:18:15.702Z,1025.23
2023-12-07T03:18:50.781Z,1025.23
2023-12-07T03:19:19.333Z,1025.23
2023-12-07T03:19:58.974Z,1025.02
2023-12-07T03:20:25.323Z,1025.02
2023-12-07T03:20:50.740Z,1025.23
2023-12-07T03:21:26.915Z,1025.23
2023-12-07T03:21:49.460Z,1025.33
2023-12-07T03:22:13.031Z,1025.33
2023-12-07T03:22:46.982Z,1025.33
2023-12-07T03:23:18.453Z,1025.13
2023-12-07T03:23:51.814Z,1025.13
2023-12-07T03:24:23.807Z,1025.23
2023-12-07T03:24:45.529Z,1025.23
2023-12-07T03:25:08.174Z,1025.23
2023-12-07T03:25:43.786Z,1025.23
2023-12-07T03:26:15.667Z,1025.13
2023-12-07T03:26:48.541Z,1025.13
2023-12-07T03:27:20.675Z,1025.13
2023-12-07T03:27:50.337Z,1025.13
2023-12-07T03:28:23.860Z,1025.23
2023-12-07T03:28:45.917Z,1025.23
2023-12-07T03:29:08.353Z,1025.23
2023-12-07T03:29:46.686Z,1025.13
2023-12-07T03:30:08.858Z,1025.13
2023-12-07T03:30:46.707Z,1025.13
2023-12-07T03:31:18.411Z,1025.33
2023-12-07T03:31:50.259Z,1025.33
2023-12-07T03:32:22.699Z,1025.13
2023-12-07T03:32:45.313Z,1025.13
2023-12-07T03:33:08.077Z,1025.13
2023-12-07T03:33:43.726Z,1025.13
2023-12-07T03:34:14.446Z,1025.23
2023-12-07T03:34:46.309Z,1025.23
2023-12-07T03:35:18.595Z,1025.13
2023-12-07T03:35:50.386Z,1025.13
2023-12-07T03:36:22.198Z,1025.23
2023-12-07T03:36:45.090Z,1025.02
2023-12-07T03:37:08.223Z,1025.02
2023-12-07T03:37:43.706Z,1025.02
2023-12-07T03:38:47.496Z,1025.02
2023-12-07T03:39:20.006Z,1025.23
2023-12-07T03:39:48.857Z,1025.23
2023-12-07T03:40:19.449Z,1025.33
2023-12-07T03:40:53.205Z,1025.13
2023-12-07T03:41:28.277Z,1025.13
2023-12-07T03:41:49.435Z,1025.13
2023-12-07T03:42:48.763Z,1025.13
2023-12-07T03:43:03.130Z,1025.23
2023-12-07T03:43:36.107Z,1025.23
2023-12-07T03:43:57.370Z,1025.23
2023-12-07T03:44:20.249Z,1025.23
2023-12-07T03:44:51.934Z,1025.13
2023-12-07T03:45:26.320Z,1025.13
2023-12-07T03:45:48.923Z,1025.23
2023-12-07T03:46:11.644Z,1025.23
2023-12-07T03:46:46.451Z,1025.23
2023-12-07T03:47:19.469Z,1025.33
2023-12-07T03:47:50.536Z,1025.33
2023-12-07T03:48:22.769Z,1025.02
2023-12-07T03:48:45.402Z,1025.13
2023-12-07T03:49:08.227Z,1025.13
2023-12-07T03:49:46.245Z,1025.33
2023-12-07T03:50:08.479Z,1025.33
2023-12-07T03:50:46.923Z,1025.33
2023-12-07T03:51:20.769Z,1025.13
2023-12-07T03:51:50.157Z,1025.13
2023-12-07T03:52:23.003Z,1025.13
2023-12-07T03:52:45.409Z,1025.33
2023-12-07T03:53:08.916Z,1025.33
2023-12-07T03:53:42.881Z,1025.33
2023-12-07T03:54:14.241Z,1025.33
2023-12-07T03:54:46.641Z,1025.33
2023-12-07T03:55:18.179Z,1025.33
2023-12-07T03:55:50.271Z,1025.33
2023-12-07T03:56:22.244Z,1025.23
2023-12-07T03:56:44.956Z,1025.33
2023-12-07T03:57:07.370Z,1025.33
2023-12-07T03:57:42.760Z,1025.33
2023-12-07T03:58:15.750Z,1025.23
2023-12-07T03:58:50.740Z,1025.23
2023-12-07T03:59:19.655Z,1025.13
2023-12-07T03:59:50.469Z,1025.13
2023-12-07T04:00:23.583Z,1025.13
2023-12-07T04:00:46.844Z,1025.33
2023-12-07T04:01:07.787Z,1025.33
2023-12-07T04:01:46.929Z,1025.33
2023-12-07T04:02:14.638Z,1025.13
2023-12-07T04:02:46.278Z,1025.13
2023-12-07T04:03:19.673Z,1025.33
2023-12-07T04:03:51.535Z,1025.33
2023-12-07T04:04:22.425Z,1025.13
2023-12-07T04:04:47.655Z,1025.13
2023-12-07T04:05:10.045Z,1025.13
2023-12-07T04:05:43.574Z,1025.13
2023-12-07T04:06:14.150Z,1025.23
2023-12-07T04:06:46.268Z,1025.23
2023-12-07T04:07:18.483Z,1025.13
2023-12-07T04:07:50.428Z,1025.13
2023-12-07T04:08:22.428Z,1025.33
2023-12-07T04:08:46.822Z,1025.33
2023-12-07T04:09:10.135Z,1025.33
2023-12-07T04:09:43.733Z,1025.33
2023-12-07T04:10:15.997Z,1025.13
2023-12-07T04:10:46.710Z,1025.13
2023-12-07T04:11:18.654Z,1025.33
2023-12-07T04:11:51.613Z,1025.33
2023-12-07T04:12:22.747Z,1025.23
2023-12-07T04:12:45.156Z,1025.23
2023-12-07T04:13:08.874Z,1025.23
2023-12-07T04:13:43.705Z,1025.23
2023-12-07T04:14:14.393Z,1025.43
2023-12-07T04:14:46.280Z,1025.43
2023-12-07T04:15:22.610Z,1025.33
2023-12-07T04:15:50.350Z,1025.33
2023-12-07T04:16:22.584Z,1025.33
2023-12-07T04:16:45.303Z,1025.33
2023-12-07T04:17:07.280Z,1025.33
2023-12-07T04:17:42.365Z,1025.33
2023-12-07T04:18:14.333Z,1025.33
2023-12-07T04:18:46.276Z,1025.33
2023-12-07T04:19:18.715Z,1025.43
2023-12-07T04:19:54.525Z,1025.43
2023-12-07T04:20:22.519Z,1025.23
2023-12-07T04:20:45.085Z,1025.43
2023-12-07T04:21:07.480Z,1025.43
2023-12-07T04:21:43.258Z,1025.43
2023-12-07T04:22:14.646Z,1025.23
2023-12-07T04:22:47.533Z,1025.23
2023-12-07T04:23:18.871Z,1025.43
2023-12-07T04:23:51.026Z,1025.43
2023-12-07T04:24:23.632Z,1025.74
2023-12-07T04:24:46.106Z,1025.33
2023-12-07T04:25:08.943Z,1025.33
2023-12-07T04:25:42.613Z,1025.33
2023-12-07T04:26:14.238Z,1025.23
2023-12-07T04:26:46.288Z,1025.23
2023-12-07T04:27:18.174Z,1025.53
2023-12-07T04:27:50.694Z,1025.53
2023-12-07T04:28:22.622Z,1025.33
2023-12-07T04:28:45.745Z,1025.33
2023-12-07T04:29:09.200Z,1025.33
2023-12-07T04:29:44.127Z,1025.33
2023-12-07T04:30:14.590Z,1025.53
2023-12-07T04:30:46.351Z,1025.53
2023-12-07T04:31:18.920Z,1025.33
2023-12-07T04:31:50.545Z,1025.33
2023-12-07T04:32:22.449Z,1025.53
2023-12-07T04:32:45.624Z,1025.43
2023-12-07T04:33:08.891Z,1025.43
2023-12-07T04:33:42.320Z,1025.43
2023-12-07T04:34:15.636Z,1025.43
2023-12-07T04:34:46.198Z,1025.43
2023-12-07T04:35:20.178Z,1025.53
2023-12-07T04:35:50.120Z,1025.53
2023-12-07T04:36:24.266Z,1025.53
2023-12-07T04:36:45.988Z,1025.33
2023-12-07T04:37:08.501Z,1025.33
2023-12-07T04:37:42.460Z,1025.33
2023-12-07T04:38:14.398Z,1025.43
2023-12-07T04:38:46.249Z,1025.43
2023-12-07T04:39:19.606Z,1025.43
2023-12-07T04:39:50.389Z,1025.43
2023-12-07T04:40:22.437Z,1025.84
2023-12-07T04:40:45.083Z,1025.53
2023-12-07T04:41:08.762Z,1025.53
2023-12-07T04:41:42.092Z,1025.53
2023-12-07T04:42:14.356Z,1025.63
2023-12-07T04:42:46.371Z,1025.63
2023-12-07T04:43:18.380Z,1025.63
2023-12-07T04:43:51.698Z,1025.63
2023-12-07T04:44:22.286Z,1025.74
2023-12-07T04:44:48.450Z,1025.53
2023-12-07T04:45:09.079Z,1025.53
2023-12-07T04:45:42.338Z,1025.53
2023-12-07T04:46:15.489Z,1025.53
2023-12-07T04:46:46.313Z,1025.53
2023-12-07T04:47:18.344Z,1025.53
2023-12-07T04:47:50.614Z,1025.53
2023-12-07T04:48:23.711Z,1025.63
2023-12-07T04:48:45.100Z,1025.53
2023-12-07T04:49:07.662Z,1025.53
2023-12-07T04:49:42.672Z,1025.53
2023-12-07T04:50:14.288Z,1025.53
2023-12-07T04:50:47.980Z,1025.53
2023-12-07T04:51:18.296Z,1025.74
2023-12-07T04:51:50.356Z,1025.74
2023-12-07T04:52:22.910Z,1025.63
2023-12-07T04:52:45.334Z,1025.63
2023-12-07T04:53:07.788Z,1025.63
2023-12-07T04:53:42.148Z,1025.63
2023-12-07T04:54:19.616Z,1025.43
2023-12-07T04:54:47.538Z,1025.43
2023-12-07T04:55:19.801Z,1025.53
2023-12-07T04:55:50.162Z,1025.53
2023-12-07T04:56:22.898Z,1025.53
2023-12-07T04:56:45.045Z,1025.53
2023-12-07T04:57:07.834Z,1025.53
2023-12-07T04:57:42.266Z,1025.53
2023-12-07T04:58:14.193Z,1025.63
2023-12-07T04:58:46.390Z,1025.63
2023-12-07T04:59:19.549Z,1025.53
2023-12-07T04:59:50.380Z,1025.53
2023-12-07T05:00:24.024Z,1025.74
2023-12-07T05:00:46.814Z,1025.74
2023-12-07T05:01:09.069Z,1025.74
2023-12-07T05:01:42.814Z,1025.74
2023-12-07T05:02:14.120Z,1025.43
2023-12-07T05:02:46.477Z,1025.43
2023-12-07T05:03:18.653Z,1025.43
2023-12-07T05:03:51.623Z,1025.43
2023-12-07T05:04:22.584Z,1025.53
2023-12-07T05:04:47.480Z,1025.43
2023-12-07T05:05:09.074Z,1025.43
2023-12-07T05:05:42.651Z,1025.43
2023-12-07T05:06:14.430Z,1025.63
2023-12-07T05:06:47.085Z,1025.63
2023-12-07T05:07:18.309Z,1025.63
2023-12-07T05:07:50.346Z,1025.63
2023-12-07T05:08:23.646Z,1025.63
2023-12-07T05:08:45.374Z,1025.43
2023-12-07T05:09:09.038Z,1025.43
2023-12-07T05:09:42.263Z,1025.43
2023-12-07T05:10:14.411Z,1025.53
2023-12-07T05:10:47.620Z,1025.53
2023-12-07T05:11:18.235Z,1025.43
2023-12-07T05:11:50.174Z,1025.43
2023-12-07T05:12:22.766Z,1025.43
2023-12-07T05:12:45.014Z,1025.53
2023-12-07T05:13:07.848Z,1025.53
2023-12-07T05:13:42.302Z,1025.53
2023-12-07T05:14:15.792Z,1025.23
2023-12-07T05:14:47.024Z,1025.23
2023-12-07T05:15:20.159Z,1025.53
2023-12-07T05:15:55.678Z,1025.53
2023-12-07T05:16:22.300Z,1025.63
2023-12-07T05:16:45.518Z,1025.53
2023-12-07T05:17:09.161Z,1025.53
2023-12-07T05:17:42.399Z,1025.53
2023-12-07T05:18:14.547Z,1025.43
2023-12-07T05:18:50.563Z,1025.43
2023-12-07T05:19:19.580Z,1025.53
2023-12-07T05:19:50.367Z,1025.53
2023-12-07T05:20:22.402Z,1025.63
2023-12-07T05:20:45.072Z,1025.43
2023-12-07T05:21:07.628Z,1025.43
2023-12-07T05:21:42.262Z,1025.43
2023-12-07T05:22:14.270Z,1025.63
2023-12-07T05:22:46.537Z,1025.63
2023-12-07T05:23:18.179Z,1025.63
2023-12-07T05:23:50.639Z,1025.63
2023-12-07T05:24:23.646Z,1025.53
2023-12-07T05:24:48.240Z,1025.33
2023-12-07T05:25:09.073Z,1025.33
2023-12-07T05:25:43.567Z,1025.33
2023-12-07T05:26:14.619Z,1025.53
2023-12-07T05:26:46.208Z,1025.53
2023-12-07T05:27:18.284Z,1025.23
2023-12-07T05:27:50.272Z,1025.23
2023-12-07T05:28:22.373Z,1025.63
2023-12-07T05:28:45.822Z,1025.33
2023-12-07T05:29:09.400Z,1025.33
2023-12-07T05:29:42.389Z,1025.33
2023-12-07T05:30:14.324Z,1025.53
2023-12-07T05:30:47.843Z,1025.53
2023-12-07T05:31:18.323Z,1025.74
2023-12-07T05:31:50.258Z,1025.74
2023-12-07T05:32:22.893Z,1025.63
2023-12-07T05:33:10.685Z,1025.63
2023-12-07T05:33:43.776Z,1025.63
2023-12-07T05:34:14.209Z,1025.43
2023-12-07T05:34:46.669Z,1025.43
2023-12-07T05:35:18.396Z,1025.43
2023-12-07T05:35:50.224Z,1025.43
2023-12-07T05:36:22.377Z,1025.53
2023-12-07T05:36:45.479Z,1025.53
2023-12-07T05:37:08.294Z,1025.53
2023-12-07T05:37:43.584Z,1025.53
2023-12-07T05:38:14.226Z,1025.63
2023-12-07T05:38:46.153Z,1025.63
2023-12-07T05:39:19.623Z,1025.53
2023-12-07T05:39:50.318Z,1025.53
2023-12-07T05:40:22.309Z,1025.53
2023-12-07T05:40:46.961Z,1025.63
2023-12-07T05:41:08.985Z,1025.63
2023-12-07T05:41:43.634Z,1025.63
2023-12-07T05:42:14.458Z,1025.33
2023-12-07T05:42:46.311Z,1025.33
2023-12-07T05:43:14.722Z,1025.43
2023-12-07T05:43:53.473Z,1025.74
2023-12-07T05:44:22.514Z,1025.74
2023-12-07T05:44:44.934Z,1025.43
2023-12-07T05:45:08.737Z,1025.43
2023-12-07T05:45:46.158Z,1025.43
2023-12-07T05:46:14.346Z,1025.43
2023-12-07T05:46:48.842Z,1025.43
2023-12-07T05:47:18.647Z,1025.53
2023-12-07T05:47:52.303Z,1025.53
2023-12-07T05:48:22.773Z,1025.43
2023-12-07T05:48:45.468Z,1025.63
2023-12-07T05:49:09.220Z,1025.63
2023-12-07T05:49:43.445Z,1025.63
2023-12-07T05:50:18.950Z,1025.63
2023-12-07T05:50:46.592Z,1025.63
2023-12-07T05:51:20.525Z,1025.53
2023-12-07T05:51:50.865Z,1025.53
2023-12-07T05:52:23.547Z,1025.74
2023-12-07T05:52:45.712Z,1025.53
2023-12-07T05:53:08.183Z,1025.53
2023-12-07T05:53:45.433Z,1025.53
2023-12-07T05:54:16.759Z,1025.74
2023-12-07T05:54:46.442Z,1025.74
2023-12-07T05:55:19.654Z,1025.63
2023-12-07T05:55:55.014Z,1025.63
2023-12-07T05:56:17.645Z,1025.63
2023-12-07T05:56:50.689Z,1025.63
2023-12-07T05:57:26.401Z,1025.63
2023-12-07T05:57:48.784Z,1025.53
2023-12-07T05:58:11.318Z,1025.53
2023-12-07T05:58:50.782Z,1025.53
2023-12-07T05:59:18.466Z,1025.43
2023-12-07T05:59:50.515Z,1025.43
2023-12-07T06:00:22.355Z,1025.53
2023-12-07T06:00:45.765Z,1025.53
2023-12-07T06:01:08.072Z,1025.53
2023-12-07T06:01:42.380Z,1025.53
2023-12-07T06:02:14.290Z,1025.43
2023-12-07T06:02:46.384Z,1025.43
2023-12-07T06:03:51.598Z,1025.74
2023-12-07T06:04:22.539Z,1025.53
2023-12-07T06:04:46.520Z,1025.53
2023-12-07T06:05:07.591Z,1025.53